createdAt,value
2018-08-13T00:00:55.115Z,71.13
2018-08-13T00:03:23.871Z,71.41
2018-08-13T00:05:53.934Z,71.34
2018-08-13T00:08:22.707Z,70.49
2018-08-13T00:10:52.057Z,71.24
2018-08-13T00:13:20.846Z,71.32
2018-08-13T00:15:49.701Z,70.82
2018-08-13T00:18:18.449Z,71.06
2018-08-13T00:20:47.177Z,71.43
2018-08-13T00:23:15.964Z,70.92
2018-08-13T00:25:44.710Z,71.05
2018-08-13T00:28:13.385Z,71.13
2018-08-13T00:30:42.051Z,71.43
2018-08-13T00:33:11.641Z,71.31
2018-08-13T00:35:40.967Z,70.61
2018-08-13T00:38:09.664Z,71.01
2018-08-13T00:40:38.352Z,71.01
2018-08-13T00:43:07.219Z,70.87
2018-08-13T00:45:35.961Z,71.09
2018-08-13T00:48:05.308Z,70.85
2018-08-13T00:50:33.981Z,71.15
2018-08-13T00:53:02.681Z,71.08
2018-08-13T00:55:31.424Z,71.05
2018-08-13T00:58:00.111Z,70.82
2018-08-13T01:00:28.776Z,70.92
2018-08-13T01:02:57.437Z,70.76
2018-08-13T01:05:26.170Z,70.89
2018-08-13T01:07:54.877Z,70.98
2018-08-13T01:10:23.545Z,70.92
2018-08-13T01:12:53.179Z,70.58
2018-08-13T01:15:21.835Z,70.63
2018-08-13T01:17:51.715Z,70.45
2018-08-13T01:20:21.594Z,70.50
2018-08-13T01:22:50.379Z,70.65
2018-08-13T01:25:20.437Z,70.30
2018-08-13T01:27:49.165Z,70.35
2018-08-13T01:30:18.971Z,70.13
2018-08-13T01:32:47.672Z,69.76
2018-08-13T01:35:16.344Z,69.93
2018-08-13T01:37:45.057Z,69.63
2018-08-13T01:40:13.826Z,69.09
2018-08-13T01:42:42.576Z,68.80
2018-08-13T01:45:12.472Z,68.86
2018-08-13T01:47:41.737Z,68.76
2018-08-13T01:50:11.715Z,68.86
2018-08-13T01:52:42.299Z,69.16
2018-08-13T01:55:11.431Z,68.93
2018-08-13T01:57:40.137Z,68.54
2018-08-13T02:00:13.704Z,68.93
2018-08-13T02:02:42.403Z,69.26
2018-08-13T02:05:11.100Z,69.69
2018-08-13T02:07:39.811Z,69.97
2018-08-13T02:10:11.216Z,69.79
2018-08-13T02:12:40.380Z,70.69
2018-08-13T02:15:09.184Z,70.75
2018-08-13T02:17:38.013Z,70.88
2018-08-13T02:20:08.028Z,70.98
2018-08-13T02:22:38.024Z,70.75
2018-08-13T02:25:07.246Z,70.98
2018-08-13T02:27:35.965Z,70.51
2018-08-13T02:30:07.465Z,70.81
2018-08-13T02:32:36.174Z,70.66
2018-08-13T02:35:06.014Z,70.47
2018-08-13T02:37:34.753Z,70.92
2018-08-13T02:40:03.725Z,70.46
2018-08-13T02:42:32.427Z,70.35
2018-08-13T02:45:01.256Z,70.80
2018-08-13T02:47:30.019Z,71.04
2018-08-13T02:49:58.697Z,71.21
2018-08-13T02:52:27.449Z,71.26
2018-08-13T02:54:56.356Z,71.67
2018-08-13T02:57:25.113Z,71.69
2018-08-13T02:59:53.906Z,72.01
2018-08-13T03:02:22.584Z,72.34
2018-08-13T03:04:52.296Z,73.06
2018-08-13T03:07:21.020Z,73.27
2018-08-13T03:09:49.824Z,73.57
2018-08-13T03:12:18.610Z,73.27
2018-08-13T03:14:47.249Z,73.89
2018-08-13T03:17:22.771Z,74.10
2018-08-13T03:19:51.486Z,73.86
2018-08-13T03:22:20.378Z,74.35
2018-08-13T03:24:49.128Z,74.04
2018-08-13T03:27:17.845Z,73.46
2018-08-13T03:29:46.807Z,73.78
2018-08-13T03:32:15.596Z,74.05
2018-08-13T03:34:44.517Z,74.21
2018-08-13T03:37:13.294Z,74.52
2018-08-13T03:39:42.001Z,74.98
2018-08-13T03:42:12.025Z,75.37
2018-08-13T03:44:40.855Z,75.69
2018-08-13T03:47:10.005Z,75.87
2018-08-13T03:49:38.632Z,76.58
2018-08-13T03:52:07.604Z,76.72
2018-08-13T03:54:36.299Z,77.08
2018-08-13T03:57:05.324Z,77.35
2018-08-13T03:59:34.300Z,77.42
2018-08-13T04:02:03.008Z,77.48
2018-08-13T04:04:31.700Z,77.98
2018-08-13T04:07:00.654Z,78.00
2018-08-13T04:09:30.227Z,78.25
2018-08-13T04:11:59.009Z,78.07
2018-08-13T04:14:28.722Z,78.71
2018-08-13T04:17:01.097Z,78.91
2018-08-13T04:19:31.139Z,78.95
2018-08-13T04:22:00.515Z,78.71
2018-08-13T04:24:29.329Z,78.61
2018-08-13T04:26:58.634Z,79.17
2018-08-13T04:29:27.964Z,79.34
2018-08-13T04:31:56.860Z,79.16
2018-08-13T04:34:25.716Z,79.85
2018-08-13T04:36:55.400Z,79.54
2018-08-13T04:39:25.336Z,79.39
2018-08-13T04:41:54.825Z,79.51
2018-08-13T04:44:24.556Z,79.67
2018-08-13T04:46:54.724Z,79.70
2018-08-13T04:49:23.910Z,79.64
2018-08-13T04:51:53.310Z,79.34
2018-08-13T04:54:22.146Z,79.36
2018-08-13T04:56:51.024Z,79.71
2018-08-13T04:59:20.567Z,79.50
2018-08-13T05:01:49.798Z,79.34
2018-08-13T05:04:19.187Z,78.94
2018-08-13T05:06:47.934Z,79.80
2018-08-13T05:09:18.849Z,79.28
2018-08-13T05:11:48.808Z,78.91
2018-08-13T05:14:17.636Z,79.10
2018-08-13T05:16:46.522Z,79.48
2018-08-13T05:19:15.211Z,79.64
2018-08-13T05:21:43.916Z,79.19
2018-08-13T05:24:12.630Z,78.55
2018-08-13T05:26:41.889Z,78.32
2018-08-13T05:29:10.672Z,78.50
2018-08-13T05:31:39.406Z,77.68
2018-08-13T05:34:08.433Z,77.84
2018-08-13T05:36:37.191Z,78.59
2018-08-13T05:39:09.281Z,78.06
2018-08-13T05:41:38.099Z,78.10
2018-08-13T05:44:07.072Z,77.35
2018-08-13T05:46:36.124Z,76.91
2018-08-13T05:49:05.016Z,76.81
2018-08-13T05:51:33.886Z,76.18
2018-08-13T05:54:02.552Z,76.41
2018-08-13T05:56:31.289Z,76.58
2018-08-13T05:58:59.993Z,76.09
2018-08-13T06:01:28.803Z,75.48
2018-08-13T06:03:57.816Z,75.00
2018-08-13T06:06:26.479Z,74.47
2018-08-13T06:08:55.190Z,74.68
2018-08-13T06:11:23.918Z,74.82
2018-08-13T06:13:52.680Z,74.47
2018-08-13T06:16:21.384Z,74.18
2018-08-13T06:18:50.143Z,73.45
2018-08-13T06:21:18.862Z,73.77
2018-08-13T06:23:47.590Z,73.06
2018-08-13T06:26:16.339Z,72.56
2018-08-13T06:28:45.040Z,72.33
2018-08-13T06:31:14.640Z,71.87
2018-08-13T06:33:43.352Z,71.85
2018-08-13T06:36:12.173Z,71.81
2018-08-13T06:38:40.893Z,71.85
2018-08-13T06:41:09.638Z,71.19
2018-08-13T06:43:38.367Z,70.99
2018-08-13T06:46:07.221Z,71.01
2018-08-13T06:48:36.164Z,70.37
2018-08-13T06:51:04.930Z,70.18
2018-08-13T06:53:34.684Z,69.41
2018-08-13T06:56:03.453Z,69.60
2018-08-13T06:58:32.172Z,69.05
2018-08-13T07:01:00.824Z,68.93
2018-08-13T07:03:29.532Z,69.03
2018-08-13T07:05:58.282Z,68.97
2018-08-13T07:08:27.024Z,68.44
2018-08-13T07:10:55.720Z,68.28
2018-08-13T07:13:25.517Z,68.19
2018-08-13T07:15:54.258Z,69.52
2018-08-13T07:18:22.982Z,69.45
2018-08-13T07:20:51.754Z,68.28
2018-08-13T07:23:20.520Z,67.54
2018-08-13T07:25:49.248Z,66.99
2018-08-13T07:28:18.013Z,66.56
2018-08-13T07:30:46.699Z,65.90
2018-08-13T07:33:15.389Z,65.38
2018-08-13T07:35:44.166Z,64.84
2018-08-13T07:38:12.966Z,64.36
2018-08-13T07:40:41.673Z,64.19
2018-08-13T07:43:10.339Z,63.97
2018-08-13T07:45:39.315Z,62.99
2018-08-13T07:48:07.921Z,63.68
2018-08-13T07:50:36.673Z,63.22
2018-08-13T07:53:05.518Z,63.29
2018-08-13T07:55:34.238Z,63.53
2018-08-13T07:58:02.948Z,62.66
2018-08-13T08:00:31.746Z,62.85
2018-08-13T08:03:00.458Z,62.55
2018-08-13T08:05:29.174Z,62.37
2018-08-13T08:07:57.896Z,62.23
2018-08-13T08:10:26.588Z,61.87
2018-08-13T08:12:55.379Z,60.88
2018-08-13T08:15:24.082Z,60.78
2018-08-13T08:17:52.772Z,60.35
2018-08-13T08:20:22.000Z,59.57
2018-08-13T08:22:50.689Z,59.29
2018-08-13T08:25:20.804Z,58.52
2018-08-13T08:27:49.526Z,58.55
2018-08-13T08:30:18.286Z,56.74
2018-08-13T08:32:47.040Z,55.96
2018-08-13T08:35:16.865Z,55.85
2018-08-13T08:37:45.618Z,55.83
2018-08-13T08:40:17.532Z,55.04
2018-08-13T08:42:46.386Z,54.59
2018-08-13T08:45:22.018Z,54.09
2018-08-13T08:47:51.750Z,53.68
2018-08-13T08:50:21.194Z,53.24
2018-08-13T08:52:50.021Z,52.70
2018-08-13T08:55:19.465Z,52.70
2018-08-13T08:57:49.490Z,51.78
2018-08-13T09:00:21.345Z,51.16
2018-08-13T09:02:50.118Z,50.00
2018-08-13T09:05:19.051Z,49.19
2018-08-13T09:07:48.033Z,48.75
2018-08-13T09:10:16.780Z,48.16
2018-08-13T09:12:45.492Z,48.53
2018-08-13T09:15:15.878Z,47.79
2018-08-13T09:17:57.156Z,46.77
2018-08-13T09:20:37.892Z,47.61
2018-08-13T09:23:18.033Z,48.71
2018-08-13T09:25:57.999Z,47.40
2018-08-13T09:28:38.118Z,46.71
2018-08-13T09:31:18.708Z,45.89
2018-08-13T09:33:58.899Z,46.00
2018-08-13T09:36:27.990Z,45.53
2018-08-13T09:38:56.693Z,45.70
2018-08-13T09:41:25.504Z,44.79
2018-08-13T09:43:54.274Z,43.95
2018-08-13T09:46:22.995Z,41.97
2018-08-13T09:48:51.900Z,39.65
2018-08-13T09:51:20.616Z,37.70
2018-08-13T09:53:49.396Z,35.72
2018-08-13T09:56:18.271Z,34.28
2018-08-13T09:58:46.975Z,34.04
2018-08-13T10:01:15.741Z,34.04
2018-08-13T10:03:44.509Z,34.75
2018-08-13T10:06:13.385Z,34.13
2018-08-13T10:08:42.224Z,33.91
2018-08-13T10:11:11.208Z,34.16
2018-08-13T10:13:39.917Z,33.59
2018-08-13T10:16:08.790Z,34.52
2018-08-13T10:18:37.629Z,35.48
2018-08-13T10:21:06.480Z,34.19
2018-08-13T10:23:35.269Z,33.67
2018-08-13T10:26:04.031Z,29.79
2018-08-13T10:28:33.789Z,28.56
2018-08-13T10:31:02.488Z,27.05
2018-08-13T10:33:31.190Z,27.05
2018-08-13T10:35:59.939Z,26.95
2018-08-13T10:38:28.772Z,26.79
2018-08-13T10:40:57.665Z,27.09
2018-08-13T10:43:26.359Z,28.33
2018-08-13T10:45:55.503Z,29.78
2018-08-13T10:48:24.385Z,30.03
2018-08-13T10:50:53.183Z,28.95
2018-08-13T10:53:21.959Z,27.20
2018-08-13T10:55:50.644Z,27.34
2018-08-13T10:58:19.336Z,27.44
2018-08-13T11:00:48.191Z,27.67
2018-08-13T11:03:16.982Z,27.41
2018-08-13T11:05:46.193Z,25.31
2018-08-13T11:08:15.507Z,24.38
2018-08-13T11:10:44.265Z,23.95
2018-08-13T11:13:12.916Z,24.96
2018-08-13T11:15:41.641Z,25.04
2018-08-13T11:18:10.515Z,25.50
2018-08-13T11:20:39.200Z,25.08
2018-08-13T11:23:07.898Z,24.29
2018-08-13T11:25:36.725Z,24.19
2018-08-13T11:28:05.781Z,24.33
2018-08-13T11:30:34.544Z,25.84
2018-08-13T11:33:03.287Z,25.88
2018-08-13T11:35:32.150Z,26.03
2018-08-13T11:38:00.905Z,26.25
2018-08-13T11:40:29.734Z,26.00
2018-08-13T11:42:58.447Z,26.58
2018-08-13T11:45:27.191Z,26.74
2018-08-13T11:47:55.926Z,26.33
2018-08-13T11:50:24.681Z,25.08
2018-08-13T11:52:53.331Z,25.36
2018-08-13T11:55:22.118Z,24.17
2018-08-13T11:57:51.268Z,24.28
2018-08-13T12:00:20.017Z,24.21
2018-08-13T12:02:48.729Z,23.80
2018-08-13T12:05:17.496Z,23.98
2018-08-13T12:07:46.524Z,23.62
2018-08-13T12:10:15.898Z,24.08
2018-08-13T12:12:44.888Z,24.15
2018-08-13T12:15:14.781Z,22.42
2018-08-13T12:17:44.236Z,22.81
2018-08-13T12:20:16.108Z,23.43
2018-08-13T12:22:45.412Z,22.96
2018-08-13T12:25:18.199Z,22.75
2018-08-13T12:27:46.989Z,21.55
2018-08-13T12:30:16.540Z,22.22
2018-08-13T12:32:45.316Z,23.16
2018-08-13T12:35:14.224Z,22.68
2018-08-13T12:37:42.969Z,22.02
2018-08-13T12:40:11.833Z,22.09
2018-08-13T12:42:40.673Z,21.85
2018-08-13T12:45:12.220Z,22.10
2018-08-13T12:47:41.186Z,22.68
2018-08-13T12:50:12.213Z,21.77
2018-08-13T12:52:41.440Z,21.65
2018-08-13T12:55:10.861Z,20.33
2018-08-13T12:57:39.662Z,19.76
2018-08-13T13:00:12.226Z,19.19
2018-08-13T13:02:41.372Z,19.57
2018-08-13T13:05:11.550Z,19.78
2018-08-13T13:07:40.292Z,20.88
2018-08-13T13:10:11.451Z,20.63
2018-08-13T13:12:40.732Z,20.13
2018-08-13T13:15:11.159Z,19.73
2018-08-13T13:17:40.153Z,20.65
2018-08-13T13:20:10.984Z,21.42
2018-08-13T13:22:39.815Z,21.12
2018-08-13T13:25:08.522Z,20.51
2018-08-13T13:27:37.773Z,21.22
2018-08-13T13:30:08.664Z,21.71
2018-08-13T13:32:37.337Z,21.71
2018-08-13T13:35:07.005Z,22.30
2018-08-13T13:37:36.361Z,22.44
2018-08-13T13:40:07.216Z,21.77
2018-08-13T13:42:36.119Z,22.15
2018-08-13T13:45:05.448Z,22.24
2018-08-13T13:47:34.238Z,21.40
2018-08-13T13:50:03.030Z,21.01
2018-08-13T13:52:31.738Z,20.52
2018-08-13T13:55:00.485Z,20.24
2018-08-13T13:57:29.165Z,19.44
2018-08-13T13:59:57.933Z,19.49
2018-08-13T14:02:26.856Z,19.55
2018-08-13T14:04:55.541Z,19.58
2018-08-13T14:07:24.239Z,20.03
2018-08-13T14:09:52.928Z,20.64
2018-08-13T14:12:21.648Z,21.15
2018-08-13T14:14:50.318Z,21.45
2018-08-13T14:17:19.441Z,22.01
2018-08-13T14:19:48.055Z,22.30
2018-08-13T14:22:16.752Z,22.82
2018-08-13T14:24:45.440Z,23.20
2018-08-13T14:27:14.559Z,23.22
2018-08-13T14:29:43.336Z,23.17
2018-08-13T14:32:12.005Z,23.53
2018-08-13T14:34:40.787Z,24.06
2018-08-13T14:37:09.473Z,23.83
2018-08-13T14:39:40.376Z,24.25
2018-08-13T14:42:09.219Z,24.10
2018-08-13T14:44:38.630Z,24.21
2018-08-13T14:47:07.300Z,24.61
2018-08-13T14:49:36.022Z,24.57
2018-08-13T14:52:04.878Z,24.87
2018-08-13T14:54:33.571Z,24.51
2018-08-13T14:59:37.525Z,25.45
2018-08-13T15:02:06.210Z,25.51
2018-08-13T15:04:34.851Z,25.54
2018-08-13T15:07:03.623Z,25.73
2018-08-13T15:09:32.296Z,25.96
2018-08-13T15:12:00.992Z,26.22
2018-08-13T15:14:29.694Z,25.88
2018-08-13T15:16:58.406Z,25.23
2018-08-13T15:19:27.197Z,25.37
2018-08-13T15:21:55.958Z,25.96
2018-08-13T15:24:24.703Z,25.99
2018-08-13T15:26:53.425Z,26.38
2018-08-13T15:29:22.249Z,29.48
2018-08-13T15:31:50.980Z,33.65
2018-08-13T15:34:19.669Z,35.52
2018-08-13T15:36:48.380Z,36.77
2018-08-13T15:39:17.044Z,39.35
2018-08-13T15:41:45.756Z,38.93
2018-08-13T15:44:14.482Z,39.44
2018-08-13T15:46:43.167Z,40.27
2018-08-13T15:49:11.830Z,41.16
2018-08-13T15:51:40.568Z,42.02
2018-08-13T15:54:09.500Z,42.11
2018-08-13T15:56:38.248Z,43.01
2018-08-13T15:59:06.943Z,44.89
2018-08-13T16:01:35.621Z,44.62
2018-08-13T16:04:04.380Z,44.89
2018-08-13T16:06:33.138Z,46.05
2018-08-13T16:09:02.248Z,46.23
2018-08-13T16:11:30.964Z,47.60
2018-08-13T16:13:59.792Z,47.94
2018-08-13T16:16:28.515Z,48.71
2018-08-13T16:18:57.249Z,49.49
2018-08-13T16:21:25.936Z,49.75
2018-08-13T16:23:54.673Z,51.08
2018-08-13T16:26:23.735Z,51.73
2018-08-13T16:28:52.502Z,52.38
2018-08-13T16:31:21.276Z,52.73
2018-08-13T16:33:50.117Z,52.41
2018-08-13T16:36:18.904Z,53.19
2018-08-13T16:38:47.742Z,52.93
2018-08-13T16:41:16.501Z,54.12
2018-08-13T16:43:45.283Z,53.65
2018-08-13T16:46:14.002Z,54.67
2018-08-13T16:48:42.791Z,54.87
2018-08-13T16:51:11.798Z,55.44
2018-08-13T16:53:40.537Z,54.79
2018-08-13T16:56:09.296Z,54.28
2018-08-13T16:58:38.036Z,54.23
2018-08-13T17:01:06.786Z,54.15
2018-08-13T17:03:35.520Z,53.93
2018-08-13T17:06:04.208Z,53.60
2018-08-13T17:08:32.892Z,53.48
2018-08-13T17:11:01.686Z,53.35
2018-08-13T17:13:30.815Z,54.67
2018-08-13T17:15:59.684Z,54.79
2018-08-13T17:18:28.525Z,56.18
2018-08-13T17:20:57.613Z,57.01
2018-08-13T17:23:26.284Z,56.21
2018-08-13T17:25:55.027Z,56.33
2018-08-13T17:28:26.857Z,58.03
2018-08-13T17:30:57.934Z,58.91
2018-08-13T17:33:29.457Z,59.58
2018-08-13T17:36:00.508Z,60.94
2018-08-13T17:38:30.108Z,61.14
2018-08-13T17:41:02.452Z,61.66
2018-08-13T17:43:34.929Z,62.68
2018-08-13T17:46:05.266Z,62.00
2018-08-13T17:48:35.895Z,62.87
2018-08-13T17:51:06.358Z,64.74
2018-08-13T17:53:38.126Z,64.29
2018-08-13T17:56:08.500Z,63.76
2018-08-13T17:58:38.888Z,64.42
2018-08-13T18:01:08.931Z,63.87
2018-08-13T18:03:39.193Z,63.12
2018-08-13T18:06:09.669Z,64.54
2018-08-13T18:08:39.815Z,64.25
2018-08-13T18:11:10.320Z,63.98
2018-08-13T18:13:40.732Z,63.03
2018-08-13T18:16:12.400Z,63.55
2018-08-13T18:18:42.697Z,64.49
2018-08-13T18:21:13.687Z,64.37
2018-08-13T18:23:44.901Z,65.56
2018-08-13T18:26:15.696Z,65.98
2018-08-13T18:28:46.384Z,66.86
2018-08-13T18:31:18.723Z,65.00
2018-08-13T18:33:49.388Z,64.77
2018-08-13T18:36:20.813Z,65.09
2018-08-13T18:38:53.025Z,64.92
2018-08-13T18:41:23.726Z,65.59
2018-08-13T18:43:53.688Z,65.65
2018-08-13T18:46:23.275Z,65.34
2018-08-13T18:48:54.037Z,65.43
2018-08-13T18:51:25.108Z,65.25
2018-08-13T18:53:56.518Z,64.45
2018-08-13T18:56:26.375Z,64.80
2018-08-13T18:58:55.222Z,64.50
2018-08-13T19:01:23.973Z,65.05
2018-08-13T19:03:53.944Z,64.93
2018-08-13T19:06:22.713Z,65.03
2018-08-13T19:08:51.563Z,65.54
2018-08-13T19:11:20.281Z,65.96
2018-08-13T19:13:49.025Z,66.44
2018-08-13T19:16:17.720Z,68.34
2018-08-13T19:18:46.484Z,68.33
2018-08-13T19:21:15.174Z,68.66
2018-08-13T19:23:43.844Z,68.24
2018-08-13T19:26:12.578Z,68.17
2018-08-13T19:28:41.298Z,68.36
2018-08-13T19:31:10.089Z,68.70
2018-08-13T19:33:38.920Z,69.37
2018-08-13T19:36:07.728Z,69.73
2018-08-13T19:38:36.470Z,70.24
2018-08-13T19:41:05.440Z,70.40
2018-08-13T19:43:34.415Z,70.80
2018-08-13T19:46:03.200Z,73.23
2018-08-13T19:48:32.063Z,73.02
2018-08-13T19:51:00.801Z,72.43
2018-08-13T19:53:29.788Z,72.39
2018-08-13T19:55:58.583Z,71.94
2018-08-13T19:58:27.477Z,71.71
2018-08-13T20:00:56.218Z,72.66
2018-08-13T20:03:24.957Z,72.62
2018-08-13T20:05:53.794Z,72.38
2018-08-13T20:08:22.563Z,72.27
2018-08-13T20:10:51.240Z,72.02
2018-08-13T20:13:19.975Z,71.82
2018-08-13T20:15:48.799Z,72.93
2018-08-13T20:18:17.595Z,73.35
2018-08-13T20:20:46.376Z,73.04
2018-08-13T20:23:15.062Z,72.56
2018-08-13T20:25:43.785Z,72.46
2018-08-13T20:28:12.473Z,71.90
2018-08-13T20:30:41.773Z,71.77
2018-08-13T20:33:10.484Z,72.24
2018-08-13T20:35:39.450Z,71.97
2018-08-13T20:38:08.141Z,71.76
2018-08-13T20:40:37.067Z,71.22
2018-08-13T20:43:06.031Z,71.07
2018-08-13T20:45:34.709Z,71.12
2018-08-13T20:48:03.436Z,71.00
2018-08-13T20:50:32.156Z,70.36
2018-08-13T20:53:00.896Z,70.13
2018-08-13T20:55:30.030Z,69.53
2018-08-13T20:58:00.888Z,68.95
2018-08-13T21:00:30.876Z,69.00
2018-08-13T21:02:59.612Z,68.71
2018-08-13T21:05:28.336Z,69.05
2018-08-13T21:07:57.033Z,69.16
2018-08-13T21:10:26.158Z,69.15
2018-08-13T21:12:55.663Z,69.05
2018-08-13T21:15:24.357Z,68.63
2018-08-13T21:17:53.076Z,68.99
2018-08-13T21:20:25.756Z,68.52
2018-08-13T21:22:54.685Z,68.55
2018-08-13T21:25:23.391Z,68.92
2018-08-13T21:27:52.163Z,69.00
2018-08-13T21:30:20.916Z,69.31
2018-08-13T21:32:49.897Z,69.28
2018-08-13T21:35:20.517Z,69.24
2018-08-13T21:37:49.670Z,68.97
2018-08-13T21:40:18.373Z,68.56
2018-08-13T21:42:47.458Z,68.99
2018-08-13T21:45:16.154Z,69.34
2018-08-13T21:47:44.903Z,68.59
2018-08-13T21:50:19.004Z,68.45
2018-08-13T21:52:48.898Z,68.98
2018-08-13T21:55:17.604Z,69.01
2018-08-13T21:57:46.399Z,69.12
2018-08-13T22:00:29.652Z,69.05
2018-08-13T22:03:01.608Z,69.23
2018-08-13T22:05:30.424Z,69.05
2018-08-13T22:07:59.528Z,69.21
2018-08-13T22:10:28.289Z,69.01
2018-08-13T22:12:57.001Z,69.31
2018-08-13T22:15:28.556Z,69.50
2018-08-13T22:17:58.909Z,70.26
2018-08-13T22:20:28.309Z,70.27
2018-08-13T22:22:58.120Z,70.87
2018-08-13T22:25:31.555Z,71.75
2018-08-13T22:28:00.466Z,71.85
2018-08-13T22:30:30.481Z,71.85
2018-08-13T22:32:59.268Z,72.21
2018-08-13T22:35:27.981Z,72.67
2018-08-13T22:37:56.708Z,72.22
2018-08-13T22:40:25.392Z,71.87
2018-08-13T22:42:54.107Z,72.42
2018-08-13T22:45:23.791Z,72.12
2018-08-13T22:47:52.685Z,72.08
2018-08-13T22:50:21.372Z,71.65
2018-08-13T22:52:50.102Z,71.91
2018-08-13T22:55:19.288Z,72.14
2018-08-13T22:57:48.510Z,72.46
2018-08-13T23:00:18.472Z,72.30
2018-08-13T23:02:48.031Z,72.70
2018-08-13T23:05:20.838Z,72.96
2018-08-13T23:07:49.630Z,72.87
2018-08-13T23:10:19.968Z,73.72
2018-08-13T23:12:49.969Z,73.82
2018-08-13T23:15:18.861Z,73.81
2018-08-13T23:17:47.758Z,73.61
2018-08-13T23:20:19.536Z,73.85
2018-08-13T23:22:56.700Z,73.81
2018-08-13T23:25:25.578Z,74.39
2018-08-13T23:27:55.381Z,74.39
2018-08-13T23:30:24.138Z,74.86
2018-08-13T23:32:53.889Z,73.97
2018-08-13T23:35:23.301Z,74.47
2018-08-13T23:37:52.136Z,74.55
2018-08-13T23:40:20.893Z,74.59
2018-08-13T23:42:49.604Z,74.66
2018-08-13T23:45:20.563Z,74.56
2018-08-13T23:47:49.445Z,74.94
2018-08-13T23:50:19.900Z,74.80
2018-08-13T23:52:49.745Z,75.20
2018-08-13T23:55:25.448Z,75.34
2018-08-13T23:57:54.583Z,75.42
